sensor_id;sensor_type;location;lat;lon;timestamp;P1;durP1;ratioP1;P2;durP2;ratioP2
59468;SDS011;45277;52.768;18.262;2022-08-19T00:01:31;17.42;;;15.48;;
59468;SDS011;45277;52.768;18.262;2022-08-19T00:03:08;20.02;;;16.00;;
59468;SDS011;45277;52.768;18.262;2022-08-19T00:04:40;19.67;;;15.98;;
59468;SDS011;45277;52.768;18.262;2022-08-19T00:06:12;17.48;;;15.38;;
59468;SDS011;45277;52.768;18.262;2022-08-19T00:07:44;19.63;;;15.65;;
59468;SDS011;45277;52.768;18.262;2022-08-19T00:09:17;19.52;;;15.52;;
59468;SDS011;45277;52.768;18.262;2022-08-19T00:10:51;20.38;;;16.33;;
59468;SDS011;45277;52.768;18.262;2022-08-19T00:12:23;21.60;;;16.17;;
59468;SDS011;45277;52.768;18.262;2022-08-19T00:13:55;18.40;;;15.32;;
59468;SDS011;45277;52.768;18.262;2022-08-19T00:15:28;19.38;;;14.30;;
59468;SDS011;45277;52.768;18.262;2022-08-19T00:17:00;20.40;;;14.40;;
59468;SDS011;45277;52.768;18.262;2022-08-19T00:18:40;17.10;;;14.88;;
59468;SDS011;45277;52.768;18.262;2022-08-19T00:20:12;18.30;;;15.00;;
59468;SDS011;45277;52.768;18.262;2022-08-19T00:21:48;17.02;;;15.23;;
59468;SDS011;45277;52.768;18.262;2022-08-19T00:23:21;18.92;;;16.45;;
59468;SDS011;45277;52.768;18.262;2022-08-19T00:24:53;17.33;;;15.30;;
59468;SDS011;45277;52.768;18.262;2022-08-19T00:26:26;18.88;;;15.65;;
59468;SDS011;45277;52.768;18.262;2022-08-19T00:27:59;21.63;;;16.63;;
59468;SDS011;45277;52.768;18.262;2022-08-19T00:29:31;19.45;;;15.07;;
59468;SDS011;45277;52.768;18.262;2022-08-19T00:31:06;16.45;;;14.60;;
59468;SDS011;45277;52.768;18.262;2022-08-19T00:32:40;16.88;;;15.07;;
59468;SDS011;45277;52.768;18.262;2022-08-19T00:34:12;18.08;;;16.23;;
59468;SDS011;45277;52.768;18.262;2022-08-19T00:35:45;20.00;;;15.82;;
59468;SDS011;45277;52.768;18.262;2022-08-19T00:37:17;18.27;;;15.88;;
59468;SDS011;45277;52.768;18.262;2022-08-19T00:38:50;19.55;;;16.10;;
59468;SDS011;45277;52.768;18.262;2022-08-19T00:40:22;19.60;;;17.50;;
59468;SDS011;45277;52.768;18.262;2022-08-19T00:42:01;22.75;;;16.40;;
59468;SDS011;45277;52.768;18.262;2022-08-19T00:43:33;20.88;;;17.55;;
59468;SDS011;45277;52.768;18.262;2022-08-19T00:45:12;20.40;;;16.58;;
59468;SDS011;45277;52.768;18.262;2022-08-19T00:46:49;19.33;;;17.17;;
59468;SDS011;45277;52.768;18.262;2022-08-19T00:48:23;21.38;;;16.50;;
59468;SDS011;45277;52.768;18.262;2022-08-19T00:49:57;20.67;;;17.73;;
59468;SDS011;45277;52.768;18.262;2022-08-19T00:51:36;19.98;;;15.93;;
59468;SDS011;45277;52.768;18.262;2022-08-19T00:53:12;20.75;;;17.13;;
59468;SDS011;45277;52.768;18.262;2022-08-19T00:54:48;20.88;;;18.25;;
59468;SDS011;45277;52.768;18.262;2022-08-19T00:56:20;20.65;;;17.38;;
59468;SDS011;45277;52.768;18.262;2022-08-19T00:57:58;22.13;;;18.50;;
59468;SDS011;45277;52.768;18.262;2022-08-19T00:59:34;20.63;;;17.98;;
59468;SDS011;45277;52.768;18.262;2022-08-19T01:01:13;21.52;;;18.38;;
59468;SDS011;45277;52.768;18.262;2022-08-19T01:02:45;22.38;;;18.35;;
59468;SDS011;45277;52.768;18.262;2022-08-19T01:04:18;24.42;;;18.63;;
59468;SDS011;45277;52.768;18.262;2022-08-19T01:05:50;23.27;;;18.67;;
59468;SDS011;45277;52.768;18.262;2022-08-19T01:07:24;23.15;;;18.50;;
59468;SDS011;45277;52.768;18.262;2022-08-19T01:08:56;20.52;;;18.42;;
59468;SDS011;45277;52.768;18.262;2022-08-19T01:10:29;20.98;;;18.60;;
59468;SDS011;45277;52.768;18.262;2022-08-19T01:12:12;23.38;;;18.52;;
59468;SDS011;45277;52.768;18.262;2022-08-19T01:13:44;21.05;;;18.80;;
59468;SDS011;45277;52.768;18.262;2022-08-19T01:15:18;20.92;;;18.73;;
59468;SDS011;45277;52.768;18.262;2022-08-19T01:16:53;24.38;;;19.52;;
59468;SDS011;45277;52.768;18.262;2022-08-19T01:18:35;23.58;;;19.20;;
59468;SDS011;45277;52.768;18.262;2022-08-19T01:20:14;22.63;;;18.95;;
59468;SDS011;45277;52.768;18.262;2022-08-19T01:21:50;25.13;;;19.65;;
59468;SDS011;45277;52.768;18.262;2022-08-19T01:23:28;23.52;;;18.77;;
59468;SDS011;45277;52.768;18.262;2022-08-19T01:25:24;20.75;;;18.00;;
59468;SDS011;45277;52.768;18.262;2022-08-19T01:27:06;23.10;;;18.77;;
59468;SDS011;45277;52.768;18.262;2022-08-19T01:28:45;22.08;;;18.58;;
59468;SDS011;45277;52.768;18.262;2022-08-19T01:32:02;23.77;;;17.83;;
59468;SDS011;45277;52.768;18.262;2022-08-19T01:33:35;22.40;;;18.17;;
59468;SDS011;45277;52.768;18.262;2022-08-19T01:35:07;32.65;;;21.20;;
59468;SDS011;45277;52.768;18.262;2022-08-19T01:36:52;25.95;;;20.25;;
59468;SDS011;45277;52.768;18.262;2022-08-19T01:38:26;25.20;;;21.00;;
59468;SDS011;45277;52.768;18.262;2022-08-19T01:40:10;24.33;;;21.65;;
59468;SDS011;45277;52.768;18.262;2022-08-19T01:41:50;27.95;;;21.02;;
59468;SDS011;45277;52.768;18.262;2022-08-19T01:43:24;27.13;;;23.35;;
59468;SDS011;45277;52.768;18.262;2022-08-19T01:44:57;27.85;;;23.55;;
59468;SDS011;45277;52.768;18.262;2022-08-19T01:46:28;26.40;;;22.50;;
59468;SDS011;45277;52.768;18.262;2022-08-19T01:48:03;29.83;;;23.35;;
59468;SDS011;45277;52.768;18.262;2022-08-19T01:49:43;28.63;;;24.05;;
59468;SDS011;45277;52.768;18.262;2022-08-19T01:51:16;27.95;;;23.77;;
59468;SDS011;45277;52.768;18.262;2022-08-19T01:52:49;30.70;;;22.88;;
59468;SDS011;45277;52.768;18.262;2022-08-19T01:54:24;26.50;;;21.92;;
59468;SDS011;45277;52.768;18.262;2022-08-19T01:55:56;28.88;;;22.58;;
59468;SDS011;45277;52.768;18.262;2022-08-19T01:57:35;26.52;;;21.88;;
59468;SDS011;45277;52.768;18.262;2022-08-19T01:59:10;23.77;;;21.25;;
59468;SDS011;45277;52.768;18.262;2022-08-19T02:00:44;36.75;;;23.45;;
59468;SDS011;45277;52.768;18.262;2022-08-19T02:02:22;27.27;;;21.55;;
59468;SDS011;45277;52.768;18.262;2022-08-19T02:03:54;29.50;;;22.70;;
59468;SDS011;45277;52.768;18.262;2022-08-19T02:05:26;24.92;;;22.02;;
59468;SDS011;45277;52.768;18.262;2022-08-19T02:07:00;27.58;;;22.90;;
59468;SDS011;45277;52.768;18.262;2022-08-19T02:08:46;28.85;;;23.08;;
59468;SDS011;45277;52.768;18.262;2022-08-19T02:10:21;29.55;;;21.85;;
59468;SDS011;45277;52.768;18.262;2022-08-19T02:11:52;25.92;;;21.25;;
59468;SDS011;45277;52.768;18.262;2022-08-19T02:13:26;27.15;;;22.40;;
59468;SDS011;45277;52.768;18.262;2022-08-19T02:14:59;26.83;;;22.08;;
59468;SDS011;45277;52.768;18.262;2022-08-19T02:16:34;24.23;;;21.50;;
59468;SDS011;45277;52.768;18.262;2022-08-19T02:19:47;25.75;;;21.80;;
59468;SDS011;45277;52.768;18.262;2022-08-19T02:21:20;26.10;;;21.50;;
59468;SDS011;45277;52.768;18.262;2022-08-19T02:22:53;28.83;;;21.10;;
59468;SDS011;45277;52.768;18.262;2022-08-19T02:24:25;25.23;;;21.65;;
59468;SDS011;45277;52.768;18.262;2022-08-19T02:25:59;22.55;;;20.05;;
59468;SDS011;45277;52.768;18.262;2022-08-19T02:27:32;28.00;;;20.80;;
59468;SDS011;45277;52.768;18.262;2022-08-19T02:29:05;23.35;;;20.30;;
59468;SDS011;45277;52.768;18.262;2022-08-19T02:30:38;24.80;;;20.63;;
59468;SDS011;45277;52.768;18.262;2022-08-19T02:32:14;26.15;;;22.52;;
59468;SDS011;45277;52.768;18.262;2022-08-19T02:33:47;24.50;;;21.52;;
59468;SDS011;45277;52.768;18.262;2022-08-19T02:35:24;24.27;;;20.90;;
59468;SDS011;45277;52.768;18.262;2022-08-19T02:36:56;26.60;;;21.33;;
59468;SDS011;45277;52.768;18.262;2022-08-19T02:38:34;23.92;;;20.95;;
59468;SDS011;45277;52.768;18.262;2022-08-19T02:40:08;24.35;;;21.23;;
59468;SDS011;45277;52.768;18.262;2022-08-19T02:41:40;24.77;;;21.95;;
59468;SDS011;45277;52.768;18.262;2022-08-19T02:43:18;25.60;;;22.50;;
59468;SDS011;45277;52.768;18.262;2022-08-19T02:44:51;25.85;;;22.40;;
59468;SDS011;45277;52.768;18.262;2022-08-19T02:48:03;27.63;;;21.35;;
59468;SDS011;45277;52.768;18.262;2022-08-19T02:49:37;26.02;;;22.05;;
59468;SDS011;45277;52.768;18.262;2022-08-19T02:51:15;26.27;;;21.13;;
59468;SDS011;45277;52.768;18.262;2022-08-19T02:52:51;26.23;;;21.77;;
59468;SDS011;45277;52.768;18.262;2022-08-19T02:54:28;24.85;;;21.80;;
59468;SDS011;45277;52.768;18.262;2022-08-19T02:56:00;25.63;;;21.60;;
59468;SDS011;45277;52.768;18.262;2022-08-19T02:57:32;25.73;;;21.85;;
59468;SDS011;45277;52.768;18.262;2022-08-19T02:59:05;26.17;;;21.80;;
59468;SDS011;45277;52.768;18.262;2022-08-19T03:00:42;23.20;;;20.55;;
59468;SDS011;45277;52.768;18.262;2022-08-19T03:02:19;26.05;;;21.25;;
59468;SDS011;45277;52.768;18.262;2022-08-19T03:03:52;24.60;;;20.73;;
59468;SDS011;45277;52.768;18.262;2022-08-19T03:05:26;25.25;;;20.67;;
59468;SDS011;45277;52.768;18.262;2022-08-19T03:06:59;26.65;;;21.00;;
59468;SDS011;45277;52.768;18.262;2022-08-19T03:08:37;24.60;;;19.50;;
59468;SDS011;45277;52.768;18.262;2022-08-19T03:10:09;24.00;;;20.27;;
59468;SDS011;45277;52.768;18.262;2022-08-19T03:11:53;28.23;;;21.38;;
59468;SDS011;45277;52.768;18.262;2022-08-19T03:13:26;23.65;;;20.30;;
59468;SDS011;45277;52.768;18.262;2022-08-19T03:14:58;23.30;;;19.63;;
59468;SDS011;45277;52.768;18.262;2022-08-19T03:16:33;25.10;;;20.40;;
59468;SDS011;45277;52.768;18.262;2022-08-19T03:18:23;29.20;;;21.00;;
59468;SDS011;45277;52.768;18.262;2022-08-19T03:19:54;27.88;;;20.98;;
59468;SDS011;45277;52.768;18.262;2022-08-19T03:21:27;27.55;;;20.95;;
59468;SDS011;45277;52.768;18.262;2022-08-19T03:23:02;24.00;;;20.17;;
59468;SDS011;45277;52.768;18.262;2022-08-19T03:24:33;24.38;;;20.55;;
59468;SDS011;45277;52.768;18.262;2022-08-19T03:26:06;24.88;;;21.00;;
59468;SDS011;45277;52.768;18.262;2022-08-19T03:27:38;25.08;;;21.48;;
59468;SDS011;45277;52.768;18.262;2022-08-19T03:29:10;29.55;;;21.55;;
59468;SDS011;45277;52.768;18.262;2022-08-19T03:30:43;24.10;;;20.48;;
59468;SDS011;45277;52.768;18.262;2022-08-19T03:32:35;25.45;;;21.65;;
59468;SDS011;45277;52.768;18.262;2022-08-19T03:34:07;25.98;;;22.00;;
59468;SDS011;45277;52.768;18.262;2022-08-19T03:35:39;25.60;;;21.27;;
59468;SDS011;45277;52.768;18.262;2022-08-19T03:37:12;25.30;;;20.92;;
59468;SDS011;45277;52.768;18.262;2022-08-19T03:38:47;28.05;;;20.95;;
59468;SDS011;45277;52.768;18.262;2022-08-19T03:40:22;26.77;;;21.83;;
59468;SDS011;45277;52.768;18.262;2022-08-19T03:42:00;24.98;;;21.98;;
59468;SDS011;45277;52.768;18.262;2022-08-19T03:43:36;28.17;;;20.63;;
59468;SDS011;45277;52.768;18.262;2022-08-19T03:45:08;26.17;;;21.10;;
59468;SDS011;45277;52.768;18.262;2022-08-19T03:46:41;24.13;;;21.35;;
59468;SDS011;45277;52.768;18.262;2022-08-19T03:48:14;27.45;;;22.10;;
59468;SDS011;45277;52.768;18.262;2022-08-19T03:49:48;27.15;;;22.55;;
59468;SDS011;45277;52.768;18.262;2022-08-19T03:51:28;26.98;;;22.15;;
59468;SDS011;45277;52.768;18.262;2022-08-19T03:53:02;27.08;;;21.63;;
59468;SDS011;45277;52.768;18.262;2022-08-19T03:54:34;26.25;;;20.55;;
59468;SDS011;45277;52.768;18.262;2022-08-19T03:56:08;30.65;;;20.80;;
59468;SDS011;45277;52.768;18.262;2022-08-19T03:57:49;25.58;;;20.58;;
59468;SDS011;45277;52.768;18.262;2022-08-19T03:59:23;28.35;;;20.92;;
59468;SDS011;45277;52.768;18.262;2022-08-19T04:01:00;26.70;;;20.73;;
59468;SDS011;45277;52.768;18.262;2022-08-19T04:02:31;25.65;;;20.73;;
59468;SDS011;45277;52.768;18.262;2022-08-19T04:04:09;25.67;;;20.23;;
59468;SDS011;45277;52.768;18.262;2022-08-19T04:05:43;26.77;;;21.27;;
59468;SDS011;45277;52.768;18.262;2022-08-19T04:07:17;26.77;;;21.42;;
59468;SDS011;45277;52.768;18.262;2022-08-19T04:08:53;24.73;;;20.73;;
59468;SDS011;45277;52.768;18.262;2022-08-19T04:10:26;26.27;;;20.58;;
59468;SDS011;45277;52.768;18.262;2022-08-19T04:11:58;26.02;;;20.08;;
59468;SDS011;45277;52.768;18.262;2022-08-19T04:13:31;27.10;;;20.60;;
59468;SDS011;45277;52.768;18.262;2022-08-19T04:15:04;25.60;;;20.02;;
59468;SDS011;45277;52.768;18.262;2022-08-19T04:16:38;23.55;;;19.25;;
59468;SDS011;45277;52.768;18.262;2022-08-19T04:18:10;24.98;;;19.38;;
59468;SDS011;45277;52.768;18.262;2022-08-19T04:19:41;26.52;;;20.45;;
59468;SDS011;45277;52.768;18.262;2022-08-19T04:21:21;24.35;;;20.02;;
59468;SDS011;45277;52.768;18.262;2022-08-19T04:22:56;25.40;;;19.58;;
59468;SDS011;45277;52.768;18.262;2022-08-19T04:24:28;27.02;;;18.80;;
59468;SDS011;45277;52.768;18.262;2022-08-19T04:26:02;22.48;;;18.13;;
59468;SDS011;45277;52.768;18.262;2022-08-19T04:27:34;23.02;;;18.48;;
59468;SDS011;45277;52.768;18.262;2022-08-19T04:29:24;25.75;;;17.65;;
59468;SDS011;45277;52.768;18.262;2022-08-19T04:30:58;22.63;;;17.48;;
59468;SDS011;45277;52.768;18.262;2022-08-19T04:32:31;22.95;;;17.38;;
59468;SDS011;45277;52.768;18.262;2022-08-19T04:34:06;24.58;;;17.50;;
59468;SDS011;45277;52.768;18.262;2022-08-19T04:35:39;25.15;;;17.95;;
59468;SDS011;45277;52.768;18.262;2022-08-19T04:37:13;22.70;;;18.23;;
59468;SDS011;45277;52.768;18.262;2022-08-19T04:38:53;23.17;;;16.90;;
59468;SDS011;45277;52.768;18.262;2022-08-19T04:40:28;22.02;;;16.55;;
59468;SDS011;45277;52.768;18.262;2022-08-19T04:42:18;22.25;;;16.63;;
59468;SDS011;45277;52.768;18.262;2022-08-19T04:44:14;25.25;;;17.27;;
59468;SDS011;45277;52.768;18.262;2022-08-19T04:45:51;21.80;;;16.77;;
59468;SDS011;45277;52.768;18.262;2022-08-19T04:47:36;22.52;;;16.85;;
59468;SDS011;45277;52.768;18.262;2022-08-19T04:49:17;24.60;;;16.63;;
59468;SDS011;45277;52.768;18.262;2022-08-19T04:50:55;24.23;;;17.73;;
59468;SDS011;45277;52.768;18.262;2022-08-19T04:52:30;22.40;;;16.83;;
59468;SDS011;45277;52.768;18.262;2022-08-19T04:54:03;19.60;;;17.00;;
59468;SDS011;45277;52.768;18.262;2022-08-19T04:55:38;21.17;;;16.42;;
59468;SDS011;45277;52.768;18.262;2022-08-19T04:57:11;24.65;;;17.58;;
59468;SDS011;45277;52.768;18.262;2022-08-19T04:58:43;22.80;;;17.85;;
59468;SDS011;45277;52.768;18.262;2022-08-19T05:00:15;27.63;;;17.58;;
59468;SDS011;45277;52.768;18.262;2022-08-19T05:01:47;23.35;;;17.88;;
59468;SDS011;45277;52.768;18.262;2022-08-19T05:03:22;24.55;;;17.65;;
59468;SDS011;45277;52.768;18.262;2022-08-19T05:04:57;23.25;;;16.75;;
59468;SDS011;45277;52.768;18.262;2022-08-19T05:06:31;19.58;;;15.85;;
59468;SDS011;45277;52.768;18.262;2022-08-19T05:08:05;18.38;;;16.27;;
59468;SDS011;45277;52.768;18.262;2022-08-19T05:09:45;18.20;;;14.93;;
59468;SDS011;45277;52.768;18.262;2022-08-19T05:11:25;17.88;;;15.15;;
59468;SDS011;45277;52.768;18.262;2022-08-19T05:13:04;18.98;;;14.88;;
59468;SDS011;45277;52.768;18.262;2022-08-19T05:14:37;18.80;;;15.00;;
59468;SDS011;45277;52.768;18.262;2022-08-19T05:16:11;18.05;;;14.90;;
59468;SDS011;45277;52.768;18.262;2022-08-19T05:17:50;18.70;;;14.07;;
59468;SDS011;45277;52.768;18.262;2022-08-19T05:19:41;18.00;;;14.50;;
59468;SDS011;45277;52.768;18.262;2022-08-19T05:21:34;17.80;;;14.02;;
59468;SDS011;45277;52.768;18.262;2022-08-19T05:23:25;19.02;;;14.07;;
59468;SDS011;45277;52.768;18.262;2022-08-19T05:25:07;19.65;;;14.88;;
59468;SDS011;45277;52.768;18.262;2022-08-19T05:26:48;20.23;;;13.27;;
59468;SDS011;45277;52.768;18.262;2022-08-19T05:28:21;18.02;;;13.77;;
59468;SDS011;45277;52.768;18.262;2022-08-19T05:29:59;14.52;;;12.35;;
59468;SDS011;45277;52.768;18.262;2022-08-19T05:31:31;17.25;;;13.15;;
59468;SDS011;45277;52.768;18.262;2022-08-19T05:33:03;18.08;;;12.23;;
59468;SDS011;45277;52.768;18.262;2022-08-19T05:34:34;15.65;;;12.55;;
59468;SDS011;45277;52.768;18.262;2022-08-19T05:36:10;17.70;;;12.73;;
59468;SDS011;45277;52.768;18.262;2022-08-19T05:37:45;15.35;;;12.70;;
59468;SDS011;45277;52.768;18.262;2022-08-19T05:39:19;14.90;;;12.25;;
59468;SDS011;45277;52.768;18.262;2022-08-19T05:40:53;16.58;;;12.10;;
59468;SDS011;45277;52.768;18.262;2022-08-19T05:42:25;19.70;;;12.75;;
59468;SDS011;45277;52.768;18.262;2022-08-19T05:43:58;18.50;;;12.23;;
59468;SDS011;45277;52.768;18.262;2022-08-19T05:45:46;13.60;;;12.20;;
59468;SDS011;45277;52.768;18.262;2022-08-19T05:47:19;14.45;;;11.95;;
59468;SDS011;45277;52.768;18.262;2022-08-19T05:48:52;15.80;;;12.75;;
59468;SDS011;45277;52.768;18.262;2022-08-19T05:50:35;17.65;;;12.23;;
59468;SDS011;45277;52.768;18.262;2022-08-19T05:53:51;17.15;;;12.05;;
59468;SDS011;45277;52.768;18.262;2022-08-19T05:55:28;20.17;;;11.88;;
59468;SDS011;45277;52.768;18.262;2022-08-19T05:57:00;14.50;;;11.57;;
59468;SDS011;45277;52.768;18.262;2022-08-19T05:58:34;13.43;;;11.10;;
59468;SDS011;45277;52.768;18.262;2022-08-19T06:00:12;15.93;;;11.32;;
59468;SDS011;45277;52.768;18.262;2022-08-19T06:01:45;12.30;;;10.90;;
59468;SDS011;45277;52.768;18.262;2022-08-19T06:03:33;13.60;;;10.82;;
59468;SDS011;45277;52.768;18.262;2022-08-19T06:05:06;15.38;;;9.88;;
59468;SDS011;45277;52.768;18.262;2022-08-19T06:06:40;17.65;;;10.75;;
59468;SDS011;45277;52.768;18.262;2022-08-19T06:08:13;16.80;;;10.38;;
59468;SDS011;45277;52.768;18.262;2022-08-19T06:09:45;20.70;;;10.63;;
59468;SDS011;45277;52.768;18.262;2022-08-19T06:13:14;12.85;;;9.20;;
59468;SDS011;45277;52.768;18.262;2022-08-19T06:14:47;12.50;;;9.13;;
59468;SDS011;45277;52.768;18.262;2022-08-19T06:16:26;17.27;;;9.60;;
59468;SDS011;45277;52.768;18.262;2022-08-19T06:17:59;20.48;;;9.80;;
59468;SDS011;45277;52.768;18.262;2022-08-19T06:19:31;14.45;;;9.60;;
59468;SDS011;45277;52.768;18.262;2022-08-19T06:21:05;17.10;;;8.68;;
59468;SDS011;45277;52.768;18.262;2022-08-19T06:22:37;13.98;;;9.10;;
59468;SDS011;45277;52.768;18.262;2022-08-19T06:24:11;25.42;;;9.40;;
59468;SDS011;45277;52.768;18.262;2022-08-19T06:25:44;17.67;;;8.63;;
59468;SDS011;45277;52.768;18.262;2022-08-19T06:27:16;16.08;;;8.60;;
59468;SDS011;45277;52.768;18.262;2022-08-19T06:28:48;16.70;;;8.48;;
59468;SDS011;45277;52.768;18.262;2022-08-19T06:30:20;15.23;;;8.20;;
59468;SDS011;45277;52.768;18.262;2022-08-19T06:31:54;11.25;;;8.60;;
59468;SDS011;45277;52.768;18.262;2022-08-19T06:33:26;12.13;;;8.38;;
59468;SDS011;45277;52.768;18.262;2022-08-19T06:35:00;12.63;;;8.45;;
59468;SDS011;45277;52.768;18.262;2022-08-19T06:36:34;13.93;;;7.68;;
59468;SDS011;45277;52.768;18.262;2022-08-19T06:38:07;13.07;;;9.00;;
59468;SDS011;45277;52.768;18.262;2022-08-19T06:39:40;15.15;;;7.78;;
59468;SDS011;45277;52.768;18.262;2022-08-19T06:41:20;15.57;;;8.43;;
59468;SDS011;45277;52.768;18.262;2022-08-19T06:42:51;15.65;;;7.95;;
59468;SDS011;45277;52.768;18.262;2022-08-19T06:44:25;11.27;;;7.72;;
59468;SDS011;45277;52.768;18.262;2022-08-19T06:46:10;15.07;;;7.88;;
59468;SDS011;45277;52.768;18.262;2022-08-19T06:47:43;16.85;;;7.72;;
59468;SDS011;45277;52.768;18.262;2022-08-19T06:49:18;12.15;;;8.38;;
59468;SDS011;45277;52.768;18.262;2022-08-19T06:50:57;10.65;;;7.30;;
59468;SDS011;45277;52.768;18.262;2022-08-19T06:52:32;20.58;;;7.47;;
59468;SDS011;45277;52.768;18.262;2022-08-19T06:54:07;17.60;;;7.45;;
59468;SDS011;45277;52.768;18.262;2022-08-19T06:55:47;9.52;;;7.18;;
59468;SDS011;45277;52.768;18.262;2022-08-19T06:57:27;14.00;;;7.35;;
59468;SDS011;45277;52.768;18.262;2022-08-19T06:59:19;13.57;;;7.72;;
59468;SDS011;45277;52.768;18.262;2022-08-19T07:00:52;10.68;;;7.22;;
59468;SDS011;45277;52.768;18.262;2022-08-19T07:02:24;20.02;;;7.95;;
59468;SDS011;45277;52.768;18.262;2022-08-19T07:03:58;23.63;;;8.00;;
59468;SDS011;45277;52.768;18.262;2022-08-19T07:05:32;13.68;;;7.78;;
59468;SDS011;45277;52.768;18.262;2022-08-19T07:07:10;36.15;;;9.30;;
59468;SDS011;45277;52.768;18.262;2022-08-19T07:08:47;9.82;;;6.75;;
59468;SDS011;45277;52.768;18.262;2022-08-19T07:10:19;11.18;;;7.13;;
59468;SDS011;45277;52.768;18.262;2022-08-19T07:11:51;9.40;;;7.25;;
59468;SDS011;45277;52.768;18.262;2022-08-19T07:14:59;11.88;;;7.50;;
59468;SDS011;45277;52.768;18.262;2022-08-19T07:16:31;8.43;;;7.55;;
59468;SDS011;45277;52.768;18.262;2022-08-19T07:18:04;12.02;;;7.20;;
59468;SDS011;45277;52.768;18.262;2022-08-19T07:19:36;17.77;;;7.75;;
59468;SDS011;45277;52.768;18.262;2022-08-19T07:21:13;11.98;;;7.68;;
59468;SDS011;45277;52.768;18.262;2022-08-19T07:22:56;17.02;;;7.43;;
59468;SDS011;45277;52.768;18.262;2022-08-19T07:24:27;9.02;;;7.18;;
59468;SDS011;45277;52.768;18.262;2022-08-19T07:26:11;12.63;;;7.20;;
59468;SDS011;45277;52.768;18.262;2022-08-19T07:27:50;12.15;;;7.35;;
59468;SDS011;45277;52.768;18.262;2022-08-19T07:29:24;11.43;;;7.22;;
59468;SDS011;45277;52.768;18.262;2022-08-19T07:30:56;26.30;;;7.85;;
59468;SDS011;45277;52.768;18.262;2022-08-19T07:32:28;13.77;;;7.80;;
59468;SDS011;45277;52.768;18.262;2022-08-19T07:35:39;10.55;;;7.35;;
59468;SDS011;45277;52.768;18.262;2022-08-19T07:37:12;11.05;;;7.10;;
59468;SDS011;45277;52.768;18.262;2022-08-19T07:38:45;10.18;;;6.80;;
59468;SDS011;45277;52.768;18.262;2022-08-19T07:40:21;23.65;;;8.10;;
59468;SDS011;45277;52.768;18.262;2022-08-19T07:41:54;14.70;;;7.22;;
59468;SDS011;45277;52.768;18.262;2022-08-19T07:43:39;9.75;;;7.22;;
59468;SDS011;45277;52.768;18.262;2022-08-19T07:45:12;15.43;;;6.97;;
59468;SDS011;45277;52.768;18.262;2022-08-19T07:46:46;10.18;;;7.28;;
59468;SDS011;45277;52.768;18.262;2022-08-19T07:48:23;16.08;;;7.57;;
59468;SDS011;45277;52.768;18.262;2022-08-19T07:49:58;12.20;;;7.40;;
59468;SDS011;45277;52.768;18.262;2022-08-19T07:51:29;16.20;;;7.47;;
59468;SDS011;45277;52.768;18.262;2022-08-19T07:53:03;14.52;;;6.70;;
59468;SDS011;45277;52.768;18.262;2022-08-19T07:54:35;14.18;;;7.72;;
59468;SDS011;45277;52.768;18.262;2022-08-19T07:56:07;10.32;;;7.05;;
59468;SDS011;45277;52.768;18.262;2022-08-19T07:57:40;12.40;;;6.75;;
59468;SDS011;45277;52.768;18.262;2022-08-19T07:59:11;15.15;;;6.70;;
59468;SDS011;45277;52.768;18.262;2022-08-19T08:00:45;23.85;;;7.53;;
59468;SDS011;45277;52.768;18.262;2022-08-19T08:02:23;17.13;;;7.05;;
59468;SDS011;45277;52.768;18.262;2022-08-19T08:03:56;14.02;;;7.72;;
59468;SDS011;45277;52.768;18.262;2022-08-19T08:05:59;15.25;;;6.60;;
59468;SDS011;45277;52.768;18.262;2022-08-19T08:07:49;19.27;;;6.72;;
59468;SDS011;45277;52.768;18.262;2022-08-19T08:09:42;12.23;;;6.35;;
59468;SDS011;45277;52.768;18.262;2022-08-19T08:11:17;13.27;;;6.60;;
59468;SDS011;45277;52.768;18.262;2022-08-19T08:12:51;13.23;;;6.10;;
59468;SDS011;45277;52.768;18.262;2022-08-19T08:14:30;16.73;;;6.80;;
59468;SDS011;45277;52.768;18.262;2022-08-19T08:16:06;16.65;;;6.43;;
59468;SDS011;45277;52.768;18.262;2022-08-19T08:17:38;14.27;;;6.20;;
59468;SDS011;45277;52.768;18.262;2022-08-19T08:19:11;14.77;;;6.28;;
59468;SDS011;45277;52.768;18.262;2022-08-19T08:20:46;9.57;;;6.07;;
59468;SDS011;45277;52.768;18.262;2022-08-19T08:22:19;14.88;;;6.63;;
59468;SDS011;45277;52.768;18.262;2022-08-19T08:24:11;13.60;;;6.47;;
59468;SDS011;45277;52.768;18.262;2022-08-19T08:25:43;16.52;;;7.20;;
59468;SDS011;45277;52.768;18.262;2022-08-19T08:27:21;13.07;;;6.55;;
59468;SDS011;45277;52.768;18.262;2022-08-19T08:28:53;13.77;;;6.45;;
59468;SDS011;45277;52.768;18.262;2022-08-19T08:30:27;11.80;;;6.07;;
59468;SDS011;45277;52.768;18.262;2022-08-19T08:32:00;17.48;;;6.53;;
59468;SDS011;45277;52.768;18.262;2022-08-19T08:33:32;17.27;;;6.35;;
59468;SDS011;45277;52.768;18.262;2022-08-19T08:35:04;13.68;;;6.00;;
59468;SDS011;45277;52.768;18.262;2022-08-19T08:36:43;10.80;;;6.10;;
59468;SDS011;45277;52.768;18.262;2022-08-19T08:38:16;9.57;;;6.47;;
59468;SDS011;45277;52.768;18.262;2022-08-19T08:39:48;11.88;;;6.25;;
59468;SDS011;45277;52.768;18.262;2022-08-19T08:41:44;14.05;;;7.15;;
59468;SDS011;45277;52.768;18.262;2022-08-19T08:43:37;8.68;;;5.97;;
59468;SDS011;45277;52.768;18.262;2022-08-19T08:45:16;14.43;;;6.60;;
59468;SDS011;45277;52.768;18.262;2022-08-19T08:46:50;11.82;;;6.35;;
59468;SDS011;45277;52.768;18.262;2022-08-19T08:50:18;14.30;;;6.57;;
59468;SDS011;45277;52.768;18.262;2022-08-19T08:52:00;16.02;;;6.30;;
59468;SDS011;45277;52.768;18.262;2022-08-19T08:53:36;14.35;;;6.43;;
59468;SDS011;45277;52.768;18.262;2022-08-19T08:55:15;23.38;;;6.97;;
59468;SDS011;45277;52.768;18.262;2022-08-19T08:56:51;11.57;;;6.07;;
59468;SDS011;45277;52.768;18.262;2022-08-19T08:58:27;11.15;;;6.03;;
59468;SDS011;45277;52.768;18.262;2022-08-19T09:00:12;14.52;;;5.70;;
59468;SDS011;45277;52.768;18.262;2022-08-19T09:01:48;11.85;;;6.30;;
59468;SDS011;45277;52.768;18.262;2022-08-19T09:03:22;12.02;;;6.45;;
59468;SDS011;45277;52.768;18.262;2022-08-19T09:04:57;13.32;;;6.30;;
59468;SDS011;45277;52.768;18.262;2022-08-19T09:06:51;8.07;;;6.05;;
59468;SDS011;45277;52.768;18.262;2022-08-19T09:10:18;19.65;;;6.53;;
59468;SDS011;45277;52.768;18.262;2022-08-19T09:12:05;13.18;;;7.03;;
59468;SDS011;45277;52.768;18.262;2022-08-19T09:13:58;10.82;;;6.53;;
59468;SDS011;45277;52.768;18.262;2022-08-19T09:16:13;8.65;;;6.30;;
59468;SDS011;45277;52.768;18.262;2022-08-19T09:17:51;12.07;;;6.70;;
59468;SDS011;45277;52.768;18.262;2022-08-19T09:19:22;12.13;;;6.63;;
59468;SDS011;45277;52.768;18.262;2022-08-19T09:20:56;13.50;;;6.45;;
59468;SDS011;45277;52.768;18.262;2022-08-19T09:22:28;8.45;;;6.15;;
59468;SDS011;45277;52.768;18.262;2022-08-19T09:24:03;7.82;;;6.60;;
59468;SDS011;45277;52.768;18.262;2022-08-19T09:25:38;11.25;;;6.47;;
59468;SDS011;45277;52.768;18.262;2022-08-19T09:27:11;14.73;;;6.38;;
59468;SDS011;45277;52.768;18.262;2022-08-19T09:28:51;12.82;;;6.60;;
59468;SDS011;45277;52.768;18.262;2022-08-19T09:30:24;13.23;;;6.97;;
59468;SDS011;45277;52.768;18.262;2022-08-19T09:32:00;11.73;;;6.82;;